Time;durP1;ratioP1;P1;durP2;ratioP2;P2;SDS_P1;SDS_P2;PMS_P1;PMS_P2;Temp;Humidity;BMP_temperature;BMP_pressure;BME280_temperature;BME280_humidity;BME280_pressure;Samples;Min_cycle;Max_cycle;Signal;HPM_P1;HPM_P2
2021/05/04 00:00:13;;;;;;;8.20;6.53;;;;;;;10.37;27.78;100594.97;4904024;28;97222;-72
2021/05/04 00:02:40;;;;;;;7.93;7.13;;;;;;;10.37;27.76;100594.97;4906490;28;97234;-71
2021/05/04 00:05:09;;;;;;;7.50;6.80;;;;;;;10.36;27.63;100587.84;4905646;28;97863;-72
2021/05/04 00:07:37;;;;;;;9.85;6.65;;;;;;;10.35;27.77;100583.41;4905479;28;96838;-72
2021/05/04 00:10:05;;;;;;;7.90;6.93;;;;;;;10.35;27.60;100586.06;4902403;28;96787;-72
2021/05/04 00:12:33;;;;;;;6.90;6.30;;;;;;;10.31;27.67;100576.22;4915829;28;97543;-72
2021/05/04 00:15:00;;;;;;;6.70;6.10;;;;;;;10.31;27.55;100568.25;4902517;28;96915;-72
2021/05/04 00:17:29;;;;;;;7.47;6.78;;;;;;;10.30;27.54;100559.41;4916780;28;97216;-72
2021/05/04 00:19:57;;;;;;;7.10;6.47;;;;;;;10.30;27.41;100551.41;4903659;28;97005;-72
2021/05/04 00:22:25;;;;;;;7.32;6.65;;;;;;;10.33;27.30;100559.44;4918206;28;96834;-72
2021/05/04 00:24:52;;;;;;;10.90;7.85;;;;;;;10.28;27.77;100552.25;4918607;28;97977;-72
2021/05/04 00:27:20;;;;;;;9.02;8.13;;;;;;;10.30;27.90;100546.09;4917648;28;99228;-72
2021/05/04 00:29:47;;;;;;;7.75;6.95;;;;;;;10.42;27.70;100540.13;4918276;28;97373;-72
2021/05/04 00:32:15;;;;;;;7.60;6.90;;;;;;;10.43;27.63;100532.16;4905446;28;96851;-72
2021/05/04 00:34:42;;;;;;;9.67;8.10;;;;;;;10.37;27.74;100520.50;4903874;28;98237;-72
2021/05/04 00:37:09;;;;;;;8.63;7.82;;;;;;;10.43;27.66;100516.19;4904648;28;98297;-72
2021/05/04 00:39:38;;;;;;;9.82;8.82;;;;;;;10.42;27.90;100508.19;4916725;28;96850;-72
2021/05/04 00:42:06;;;;;;;7.18;6.57;;;;;;;10.49;27.65;100502.09;4900916;28;97306;-72
2021/05/04 00:44:33;;;;;;;8.30;7.50;;;;;;;10.49;27.62;100500.34;4904483;28;97488;-72
2021/05/04 00:47:02;;;;;;;7.63;6.93;;;;;;;10.50;27.57;100490.63;4903475;28;98093;-72
2021/05/04 00:49:29;;;;;;;8.02;6.78;;;;;;;10.49;27.66;100492.38;4902766;28;97586;-71
2021/05/04 00:51:56;;;;;;;8.20;7.25;;;;;;;10.47;27.62;100479.91;4899124;28;97937;-71
2021/05/04 00:54:24;;;;;;;7.25;6.60;;;;;;;10.44;27.52;100477.19;4903643;28;98170;-71
2021/05/04 00:56:54;;;;;;;8.05;7.25;;;;;;;10.43;27.45;100475.44;4902618;28;97885;-72
2021/05/04 00:59:22;;;;;;;8.10;7.13;;;;;;;10.43;27.54;100467.44;4902927;28;96905;-71
2021/05/04 01:01:50;;;;;;;8.15;7.38;;;;;;;10.47;27.49;100458.63;4904379;28;96964;-72
2021/05/04 01:04:18;;;;;;;6.97;6.38;;;;;;;10.50;27.36;100448.06;4907381;28;99982;-72
2021/05/04 01:06:45;;;;;;;8.50;7.70;;;;;;;10.46;27.45;100446.22;4904553;28;97894;-72
2021/05/04 01:09:13;;;;;;;7.80;6.93;;;;;;;10.56;27.34;100440.16;4907260;28;96829;-72
2021/05/04 01:11:41;;;;;;;7.40;6.63;;;;;;;10.57;27.54;100431.31;4921421;28;96934;-72
2021/05/04 01:14:12;;;;;;;7.53;6.85;;;;;;;10.57;27.30;100426.00;4906168;28;97222;-71
2021/05/04 01:16:41;;;;;;;8.75;7.93;;;;;;;10.51;27.52;100420.56;4917602;28;97415;-72
2021/05/04 01:19:09;;;;;;;7.60;6.95;;;;;;;10.53;27.42;100414.41;4904048;28;96768;-72
2021/05/04 01:21:37;;;;;;;7.10;6.30;;;;;;;10.55;27.43;100409.09;4907005;28;97310;-71
2021/05/04 01:24:05;;;;;;;8.05;7.35;;;;;;;10.59;27.38;100405.63;4907112;28;97036;-72
2021/05/04 01:26:33;;;;;;;7.03;6.43;;;;;;;10.54;27.19;100394.91;4919361;28;97888;-71
2021/05/04 01:29:03;;;;;;;7.68;6.57;;;;;;;10.54;27.28;100380.72;4918817;28;97954;-72
2021/05/04 01:31:30;;;;;;;7.78;6.80;;;;;;;10.55;27.11;100382.50;4907779;28;97580;-72
2021/05/04 01:33:58;;;;;;;7.32;6.57;;;;;;;10.57;26.93;100375.44;4905637;28;97956;-72
2021/05/04 01:36:25;;;;;;;7.32;6.78;;;;;;;10.57;27.23;100365.69;4907603;28;98463;-71
2021/05/04 01:38:54;;;;;;;7.03;6.38;;;;;;;10.59;27.26;100363.97;4906322;28;96898;-72
2021/05/04 01:41:21;;;;;;;7.05;6.45;;;;;;;10.63;27.18;100362.22;4904413;28;97124;-72
2021/05/04 01:43:49;;;;;;;7.47;6.78;;;;;;;10.64;27.05;100353.38;4905587;28;97933;-71
2021/05/04 01:46:16;;;;;;;8.80;6.47;;;;;;;10.65;27.09;100348.06;4897980;28;99221;-71
2021/05/04 01:48:44;;;;;;;7.40;6.70;;;;;;;10.66;27.05;100335.66;4906102;28;96832;-72
2021/05/04 01:51:11;;;;;;;6.50;6.05;;;;;;;10.62;27.01;100329.41;4906868;28;97511;-72
2021/05/04 01:53:38;;;;;;;7.50;6.80;;;;;;;10.57;27.10;100327.56;4907916;28;97951;-71
2021/05/04 01:56:07;;;;;;;7.18;6.50;;;;;;;10.55;27.01;100318.66;4907317;28;96852;-72
2021/05/04 01:58:34;;;;;;;7.25;6.55;;;;;;;10.55;27.20;100314.22;4906265;28;97807;-72
2021/05/04 02:01:02;;;;;;;7.78;7.07;;;;;;;10.56;27.12;100307.13;4900406;28;96915;-71
2021/05/04 02:03:29;;;;;;;7.22;6.57;;;;;;;10.53;27.14;100297.34;4901097;28;99728;-72
2021/05/04 02:05:56;;;;;;;7.75;7.05;;;;;;;10.51;27.13;100292.88;4916589;28;98283;-72
2021/05/04 02:08:24;;;;;;;8.13;7.32;;;;;;;10.50;27.21;100293.75;4906067;28;96771;-72
2021/05/04 02:10:51;;;;;;;8.85;7.10;;;;;;;10.47;27.13;100283.06;4905763;28;96798;-72
2021/05/04 02:13:21;;;;;;;7.70;6.97;;;;;;;10.49;27.13;100270.66;4918301;28;97809;-72
2021/05/04 02:15:49;;;;;;;7.68;6.88;;;;;;;10.50;27.25;100272.47;4903901;28;98319;-72
2021/05/04 02:18:18;;;;;;;7.60;6.90;;;;;;;10.49;27.26;100265.34;4904136;28;97276;-72
2021/05/04 02:20:45;;;;;;;8.00;7.28;;;;;;;10.50;27.24;100253.84;4906531;28;97326;-72
2021/05/04 02:23:12;;;;;;;7.05;6.43;;;;;;;10.48;27.11;100248.53;4905608;28;97874;-72
2021/05/04 02:25:40;;;;;;;7.55;6.85;;;;;;;10.50;27.16;100237.91;4907193;28;98185;-71
2021/05/04 02:28:07;;;;;;;10.55;9.05;;;;;;;10.49;27.13;100225.44;4920683;28;96871;-71
2021/05/04 02:30:36;;;;;;;7.80;7.10;;;;;;;10.48;27.18;100232.56;4905687;28;96927;-71
2021/05/04 02:33:03;;;;;;;9.00;8.15;;;;;;;10.44;27.54;100217.44;4919924;28;97974;-71
2021/05/04 02:35:30;;;;;;;8.00;7.30;;;;;;;10.50;27.39;100206.88;4907678;28;97590;-71
2021/05/04 02:37:58;;;;;;;7.40;6.70;;;;;;;10.51;27.31;100211.31;4906509;28;96867;-71
2021/05/04 02:40:26;;;;;;;7.13;6.53;;;;;;;10.53;27.32;100188.28;4905996;28;96798;-71
2021/05/04 02:42:53;;;;;;;7.55;6.80;;;;;;;10.57;27.29;100191.88;4907940;28;98094;-71
2021/05/04 02:45:20;;;;;;;9.20;6.95;;;;;;;10.58;27.24;100183.00;4907558;28;97929;-72
2021/05/04 02:47:49;;;;;;;7.65;6.70;;;;;;;10.59;27.25;100177.72;4904419;28;97691;-71
2021/05/04 02:50:16;;;;;;;8.70;7.90;;;;;;;10.59;27.22;100166.19;4903573;28;97541;-71
2021/05/04 02:52:44;;;;;;;7.88;7.13;;;;;;;10.60;27.21;100163.53;4905112;28;98911;-70
2021/05/04 02:55:13;;;;;;;8.20;7.00;;;;;;;10.60;27.27;100157.31;4906448;28;97810;-71
2021/05/04 02:57:41;;;;;;;13.48;12.05;;;;;;;10.60;27.24;100141.34;4917628;28;97721;-71
2021/05/04 03:00:10;;;;;;;12.02;9.90;;;;;;;10.58;27.26;100141.34;4905132;28;97041;-70
2021/05/04 03:02:39;;;;;;;8.82;7.25;;;;;;;10.59;27.29;100123.63;4906242;28;97400;-72
2021/05/04 03:05:08;;;;;;;7.50;6.72;;;;;;;10.56;27.33;100118.22;4904467;28;96825;-72
2021/05/04 03:07:36;;;;;;;7.60;6.90;;;;;;;10.58;27.36;100113.81;4920398;28;96908;-72
2021/05/04 03:10:04;;;;;;;7.88;6.82;;;;;;;10.55;27.35;100108.50;4904442;28;96883;-72
2021/05/04 03:12:32;;;;;;;7.55;6.80;;;;;;;10.55;27.35;100098.75;4901977;28;99195;-71
2021/05/04 03:14:59;;;;;;;8.97;8.17;;;;;;;10.52;27.93;100088.06;4905012;28;98151;-71
2021/05/04 03:17:27;;;;;;;7.68;7.00;;;;;;;10.61;27.65;100085.47;4904469;28;96970;-71
2021/05/04 03:19:55;;;;;;;7.50;6.80;;;;;;;10.64;27.47;100076.66;4920090;28;96994;-72
2021/05/04 03:22:23;;;;;;;9.77;6.72;;;;;;;10.62;27.57;100075.75;4920824;28;97977;-71
2021/05/04 03:24:50;;;;;;;8.85;7.95;;;;;;;10.58;27.80;100071.25;4903182;28;97254;-71
2021/05/04 03:27:17;;;;;;;10.60;8.57;;;;;;;10.56;27.75;100052.63;4918872;28;96905;-71
2021/05/04 03:29:46;;;;;;;8.35;7.10;;;;;;;10.67;27.50;100055.38;4905543;28;97435;-72
2021/05/04 03:32:14;;;;;;;8.88;7.97;;;;;;;10.63;27.69;100050.94;4903923;28;99246;-72
2021/05/04 03:34:41;;;;;;;8.13;6.78;;;;;;;10.65;27.74;100043.88;4905830;28;96832;-72
2021/05/04 03:37:08;;;;;;;7.40;6.60;;;;;;;10.69;27.70;100038.56;4905965;28;97138;-70
2021/05/04 03:39:37;;;;;;;42.97;23.40;;;;;;;10.69;27.51;100035.00;4905673;28;96929;-71
2021/05/04 03:42:05;;;;;;;35.67;19.77;;;;;;;10.70;27.46;100021.72;4904268;28;98491;-71
2021/05/04 03:44:33;;;;;;;13.60;8.27;;;;;;;10.70;27.42;100015.53;4903419;28;96858;-71
2021/05/04 03:47:02;;;;;;;8.10;7.13;;;;;;;10.67;27.45;100000.41;4903139;28;96958;-70
2021/05/04 03:49:30;;;;;;;8.00;7.20;;;;;;;10.66;27.46;99989.75;4904327;28;96758;-71
2021/05/04 03:51:57;;;;;;;8.40;6.53;;;;;;;10.65;27.44;99983.53;4903892;28;97300;-71
2021/05/04 03:54:24;;;;;;;9.65;7.07;;;;;;;10.62;27.32;99975.53;4902824;28;96782;-71
2021/05/04 03:56:52;;;;;;;9.77;8.48;;;;;;;10.63;27.40;99966.66;4903847;28;96797;-71
2021/05/04 03:59:21;;;;;;;9.70;7.07;;;;;;;10.66;27.29;99953.41;4903396;28;97007;-71
2021/05/04 04:01:48;;;;;;;33.88;21.40;;;;;;;10.67;27.31;99938.31;4901804;28;96821;-72
2021/05/04 04:04:16;;;;;;;17.67;12.32;;;;;;;10.64;27.40;99931.22;4905268;28;97796;-71
2021/05/04 04:06:44;;;;;;;9.20;7.55;;;;;;;10.63;27.42;99933.88;4899229;28;96958;-70
2021/05/04 04:09:11;;;;;;;9.40;8.37;;;;;;;10.60;27.62;99923.19;4899176;28;97239;-71
2021/05/04 04:11:38;;;;;;;9.63;8.67;;;;;;;10.57;27.65;99907.22;4899170;28;97302;-72
2021/05/04 04:14:06;;;;;;;9.65;7.38;;;;;;;10.64;27.36;99901.06;4898964;28;98710;-72
2021/05/04 04:16:34;;;;;;;13.93;10.00;;;;;;;10.63;27.37;99902.81;4902939;28;97146;-72
2021/05/04 04:19:02;;;;;;;8.25;7.50;;;;;;;10.65;27.30;99895.75;4902035;28;97301;-71
2021/05/04 04:21:29;;;;;;;67.15;38.60;;;;;;;10.67;27.52;99891.31;4902130;28;96894;-71
2021/05/04 04:23:56;;;;;;;9.52;8.60;;;;;;;10.71;27.33;99879.81;4919637;28;97760;-72
2021/05/04 04:26:25;;;;;;;9.30;8.37;;;;;;;10.72;27.41;99865.63;4903310;28;96957;-72
2021/05/04 04:28:59;;;;;;;8.02;7.22;;;;;;;10.73;27.31;99855.88;4903343;28;96909;-73
2021/05/04 04:31:29;;;;;;;8.47;7.60;;;;;;;10.72;27.34;99854.13;4915838;28;97059;-71
2021/05/04 04:33:56;;;;;;;8.55;7.13;;;;;;;10.78;27.17;99843.50;4900096;28;96824;-71
2021/05/04 04:36:24;;;;;;;7.97;6.88;;;;;;;10.75;27.28;99835.50;4916432;28;96821;-71
2021/05/04 04:38:51;;;;;;;9.00;7.07;;;;;;;10.74;27.39;99836.41;4900118;28;96874;-71
2021/05/04 04:41:34;;;;;;;8.55;7.65;;;;;;;10.74;27.35;99823.09;4901152;28;100531;-71
2021/05/04 04:44:03;;;;;;;8.93;7.73;;;;;;;10.75;27.15;99822.19;4901386;28;97848;-72
2021/05/04 04:46:40;;;;;;;9.93;8.25;;;;;;;10.77;27.24;99813.34;4904654;28;96855;-71
2021/05/04 04:49:09;;;;;;;7.72;7.03;;;;;;;10.85;27.15;99808.06;4905720;28;96801;-71
2021/05/04 04:51:37;;;;;;;8.30;7.50;;;;;;;10.86;27.10;99801.84;4920123;28;97903;-71
2021/05/04 04:54:04;;;;;;;8.18;6.72;;;;;;;10.85;27.23;99790.31;4904320;28;97403;-70
2021/05/04 04:56:34;;;;;;;8.10;6.10;;;;;;;10.85;26.93;99779.66;4906805;28;95976;-71
2021/05/04 04:59:02;;;;;;;7.82;7.15;;;;;;;10.86;27.09;99762.81;4918615;28;97379;-71
2021/05/04 05:01:30;;;;;;;7.35;6.60;;;;;;;10.86;27.04;99756.59;4918525;28;97885;-71
2021/05/04 05:03:58;;;;;;;8.88;6.55;;;;;;;10.86;27.02;99748.63;4915097;28;97854;-71
2021/05/04 05:06:26;;;;;;;9.15;6.32;;;;;;;10.86;26.84;99751.28;4905564;28;96842;-71
2021/05/04 05:08:55;;;;;;;7.10;6.50;;;;;;;10.84;27.02;99742.41;4915516;28;96804;-70
2021/05/04 05:11:23;;;;;;;9.05;6.47;;;;;;;10.85;27.09;99746.84;4905534;28;96817;-71
2021/05/04 05:13:50;;;;;;;13.60;6.75;;;;;;;10.87;26.99;99732.66;4900555;28;98253;-71
2021/05/04 05:16:19;;;;;;;8.50;6.88;;;;;;;10.92;26.76;99732.69;4901637;28;96913;-72
2021/05/04 05:18:52;;;;;;;6.57;5.97;;;;;;;10.91;26.96;99720.25;4900626;28;96800;-71
2021/05/04 05:21:20;;;;;;;7.63;6.88;;;;;;;10.94;26.88;99725.59;4915466;28;97697;-71
2021/05/04 05:23:48;;;;;;;7.50;6.82;;;;;;;10.93;26.87;99716.72;4898107;28;98061;-72
2021/05/04 05:26:16;;;;;;;7.30;6.60;;;;;;;10.90;26.99;99716.69;4917564;28;97326;-72
2021/05/04 05:28:44;;;;;;;9.68;6.88;;;;;;;10.91;26.81;99712.25;4902085;28;97204;-71
2021/05/04 05:31:11;;;;;;;7.85;7.07;;;;;;;10.91;26.97;99712.25;4902454;28;98061;-72
2021/05/04 05:33:39;;;;;;;9.65;6.35;;;;;;;10.95;26.81;99695.41;4909986;28;99111;-72
2021/05/04 05:36:07;;;;;;;8.23;7.40;;;;;;;11.00;26.63;99707.84;4901842;28;96900;-71
2021/05/04 05:38:36;;;;;;;8.55;6.50;;;;;;;11.03;26.91;99707.84;4918491;28;97366;-71
2021/05/04 05:41:05;;;;;;;10.35;7.00;;;;;;;11.06;26.77;99693.66;4901589;28;98385;-72
2021/05/04 05:43:32;;;;;;;7.75;7.05;;;;;;;11.09;26.77;99702.53;4901075;28;97351;-72
2021/05/04 05:46:01;;;;;;;7.75;6.65;;;;;;;11.07;26.65;99687.44;4903317;28;96845;-72
2021/05/04 05:48:29;;;;;;;8.45;6.70;;;;;;;11.06;26.80;99675.94;4919190;28;96927;-71
2021/05/04 05:50:56;;;;;;;6.95;6.25;;;;;;;11.06;26.96;99678.59;4904162;28;96758;-71
2021/05/04 05:53:26;;;;;;;7.13;6.53;;;;;;;11.06;26.99;99677.69;4903841;28;97869;-71
2021/05/04 05:55:53;;;;;;;22.88;6.85;;;;;;;11.07;26.88;99676.78;4893338;28;97338;-71
2021/05/04 05:58:22;;;;;;;7.32;6.18;;;;;;;11.10;26.85;99667.03;4918184;28;96937;-71
2021/05/04 06:00:50;;;;;;;11.05;6.78;;;;;;;11.16;26.86;99656.41;4915247;28;97697;-71
2021/05/04 06:03:18;;;;;;;8.02;6.13;;;;;;;11.23;26.58;99654.66;4891810;28;97194;-71
2021/05/04 06:05:46;;;;;;;7.10;6.40;;;;;;;11.22;26.74;99650.19;4912020;28;97258;-71
2021/05/04 06:08:13;;;;;;;6.72;6.13;;;;;;;11.25;26.76;99644.84;4892259;28;96974;-71
2021/05/04 06:10:41;;;;;;;11.30;8.20;;;;;;;11.21;26.87;99643.97;4897470;28;98152;-71
2021/05/04 06:13:09;;;;;;;10.50;7.77;;;;;;;11.25;27.06;99641.34;4913265;28;97817;-72
2021/05/04 06:15:39;;;;;;;8.90;7.87;;;;;;;11.34;27.01;99641.38;4897424;28;97469;-71
2021/05/04 06:18:07;;;;;;;8.07;6.18;;;;;;;11.48;26.64;99626.25;4901247;28;97106;-71
2021/05/04 06:20:34;;;;;;;6.00;5.38;;;;;;;11.58;26.57;99641.34;4899246;28;96850;-70
2021/05/04 06:23:02;;;;;;;11.15;6.30;;;;;;;11.68;26.35;99625.34;4895365;28;98930;-71
2021/05/04 06:25:30;;;;;;;6.43;5.65;;;;;;;11.78;26.20;99626.22;4901292;28;97229;-71
2021/05/04 06:28:01;;;;;;;6.68;5.97;;;;;;;11.85;26.25;99630.66;4902355;28;96836;-71
2021/05/04 06:30:33;;;;;;;6.20;5.50;;;;;;;11.85;26.40;99634.16;4903054;28;97887;-71
2021/05/04 06:33:03;;;;;;;7.45;5.90;;;;;;;11.89;26.38;99630.63;4904953;28;97162;-71
2021/05/04 06:35:33;;;;;;;6.97;5.47;;;;;;;11.92;26.04;99638.63;4897835;28;97258;-72
2021/05/04 06:38:01;;;;;;;6.75;5.95;;;;;;;11.99;26.00;99640.38;4903256;28;96922;-72
2021/05/04 06:40:28;;;;;;;6.82;5.43;;;;;;;12.03;26.10;99649.25;4902100;28;97340;-73
2021/05/04 06:42:56;;;;;;;5.72;5.22;;;;;;;12.04;26.07;99624.34;4903977;28;97770;-72
2021/05/04 06:45:24;;;;;;;5.18;4.53;;;;;;;12.08;25.83;99642.13;4919874;28;97142;-72
2021/05/04 06:47:52;;;;;;;7.03;4.95;;;;;;;12.13;25.92;99626.97;4901685;28;96883;-74
2021/05/04 06:50:19;;;;;;;9.90;4.90;;;;;;;12.18;25.80;99615.44;4905111;28;99962;-72
2021/05/04 06:52:47;;;;;;;8.80;4.90;;;;;;;12.23;25.69;99611.88;4905282;28;97815;-70
2021/05/04 06:55:14;;;;;;;10.25;5.00;;;;;;;12.27;25.61;99621.66;4905087;28;97419;-72
2021/05/04 06:57:41;;;;;;;7.82;5.00;;;;;;;12.30;25.65;99610.94;4901142;28;97787;-73
2021/05/04 07:00:10;;;;;;;4.95;4.55;;;;;;;12.28;25.78;99600.28;4914606;28;97873;-72
2021/05/04 07:02:39;;;;;;;5.20;4.70;;;;;;;12.30;25.69;99626.94;4897560;28;98099;-73
2021/05/04 07:05:08;;;;;;;5.75;5.25;;;;;;;12.29;25.55;99599.38;4901375;28;96843;-72
2021/05/04 07:07:38;;;;;;;7.90;4.80;;;;;;;12.32;25.66;99596.72;4902248;28;97768;-71
2021/05/04 07:10:07;;;;;;;4.68;4.25;;;;;;;12.39;25.65;99585.13;4901445;28;97018;-71
2021/05/04 07:12:34;;;;;;;4.97;4.47;;;;;;;12.45;25.72;99581.53;4903143;28;96901;-72
2021/05/04 07:15:02;;;;;;;4.25;3.95;;;;;;;12.50;25.72;99580.63;4917539;28;96861;-71
2021/05/04 07:17:29;;;;;;;4.78;4.25;;;;;;;12.53;25.54;99587.72;4918533;28;96956;-70
2021/05/04 07:19:58;;;;;;;4.40;4.10;;;;;;;12.55;25.65;99565.47;4900417;28;98892;-71
2021/05/04 07:22:27;;;;;;;4.60;4.20;;;;;;;12.63;25.54;99557.41;4902226;28;97761;-72
2021/05/04 07:24:55;;;;;;;5.90;4.22;;;;;;;12.67;25.56;99567.19;4916543;28;96820;-71
2021/05/04 07:27:22;;;;;;;4.80;4.40;;;;;;;12.64;25.70;99562.72;4902184;28;97314;-71
2021/05/04 07:29:50;;;;;;;4.50;4.20;;;;;;;12.64;25.43;99554.72;4911369;28;99011;-71
2021/05/04 07:32:19;;;;;;;7.13;4.07;;;;;;;12.63;25.76;99544.06;4906573;28;97396;-72
2021/05/04 07:34:49;;;;;;;4.30;4.03;;;;;;;12.64;25.74;99554.72;4919355;28;96941;-70
2021/05/04 07:37:17;;;;;;;4.30;4.00;;;;;;;12.65;25.86;99543.16;4903521;28;97043;-72
2021/05/04 07:39:45;;;;;;;6.43;4.07;;;;;;;12.66;25.79;99542.25;4900378;28;97541;-72
2021/05/04 07:42:13;;;;;;;4.03;3.75;;;;;;;12.72;25.89;99555.56;4901099;28;99137;-73
2021/05/04 07:44:41;;;;;;;5.45;4.15;;;;;;;12.79;25.69;99548.38;4902894;28;97541;-72
2021/05/04 07:47:09;;;;;;;4.68;3.70;;;;;;;12.89;25.59;99550.97;4917461;28;96951;-71
2021/05/04 07:49:41;;;;;;;4.78;3.97;;;;;;;12.95;25.75;99552.72;4898367;28;97137;-72
2021/05/04 07:52:09;;;;;;;3.90;3.60;;;;;;;13.05;25.60;99550.00;4894745;28;96789;-70
2021/05/04 07:54:37;;;;;;;4.22;3.15;;;;;;;13.15;25.50;99541.00;4900780;28;97642;-71
2021/05/04 07:57:06;;;;;;;3.95;3.65;;;;;;;13.18;25.44;99548.09;4915180;28;97446;-71
2021/05/04 07:59:40;;;;;;;3.47;2.97;;;;;;;13.22;25.48;99565.00;4902308;28;97581;-72
2021/05/04 08:02:07;;;;;;;5.05;3.05;;;;;;;13.30;25.40;99558.66;4900273;28;97376;-71
2021/05/04 08:04:35;;;;;;;3.28;3.08;;;;;;;13.41;25.30;99556.78;4903238;28;97301;-72
2021/05/04 08:07:07;;;;;;;19.02;3.88;;;;;;;13.48;25.24;99547.78;4903757;28;96982;-72
2021/05/04 08:09:34;;;;;;;11.98;3.92;;;;;;;13.50;25.21;99554.00;4902928;28;97223;-72
2021/05/04 08:12:03;;;;;;;11.90;3.70;;;;;;;13.54;25.24;99545.06;4920018;28;98994;-71
2021/05/04 08:14:32;;;;;;;12.18;4.03;;;;;;;13.54;25.17;99528.13;4903675;28;96901;-72
2021/05/04 08:17:10;;;;;;;6.75;3.80;;;;;;;13.49;25.34;99538.91;4894342;28;97597;-71
2021/05/04 08:19:38;;;;;;;4.50;2.90;;;;;;;13.53;25.36;99527.25;4902136;28;96900;-72
2021/05/04 08:22:05;;;;;;;6.90;3.63;;;;;;;13.56;25.25;99539.69;4902550;28;97801;-72
2021/05/04 08:24:33;;;;;;;4.13;3.83;;;;;;;13.63;25.30;99534.28;4919974;28;97269;-72
2021/05/04 08:27:01;;;;;;;4.63;3.60;;;;;;;13.68;25.42;99537.78;4903010;28;96962;-72
2021/05/04 08:29:29;;;;;;;6.82;3.60;;;;;;;13.72;25.36;99530.59;4902331;28;97226;-72
2021/05/04 08:31:57;;;;;;;5.57;3.55;;;;;;;13.80;25.26;99518.09;4917382;28;98028;-72
2021/05/04 08:34:25;;;;;;;8.52;3.50;;;;;;;13.80;25.32;99521.66;4913891;28;97489;-72
2021/05/04 08:36:52;;;;;;;4.30;2.92;;;;;;;13.86;25.33;99528.72;4901654;28;96907;-72
2021/05/04 08:39:19;;;;;;;13.35;3.88;;;;;;;13.84;25.51;99523.34;4900399;28;98066;-72
2021/05/04 08:41:47;;;;;;;22.42;5.70;;;;;;;13.78;25.55;99502.03;4905076;28;97799;-72
2021/05/04 08:44:16;;;;;;;18.35;4.28;;;;;;;13.71;25.49;99497.66;4905041;28;97491;-72
2021/05/04 08:46:45;;;;;;;14.93;6.10;;;;;;;13.69;25.50;99496.78;4919976;28;97149;-72
2021/05/04 08:49:14;;;;;;;3.45;3.17;;;;;;;13.73;25.71;99511.00;4904030;28;96926;-72
2021/05/04 08:51:42;;;;;;;8.10;3.42;;;;;;;13.70;25.66;99506.56;4904935;28;97284;-72
2021/05/04 08:54:10;;;;;;;7.15;3.70;;;;;;;13.76;25.46;99497.59;4905317;28;97158;-72
2021/05/04 08:56:40;;;;;;;3.95;3.13;;;;;;;13.87;25.54;99504.63;4907506;28;96818;-72
2021/05/04 08:59:08;;;;;;;5.80;3.47;;;;;;;13.95;25.53;99501.84;4905168;28;96973;-73
2021/05/04 09:01:35;;;;;;;15.65;3.90;;;;;;;14.05;25.47;99531.13;4903893;28;99736;-72
2021/05/04 09:04:07;;;;;;;20.33;5.13;;;;;;;14.12;25.36;99506.06;4903063;28;97283;-74
2021/05/04 09:06:38;;;;;;;12.70;4.22;;;;;;;14.18;25.46;99547.91;4904939;28;97090;-72
2021/05/04 09:09:13;;;;;;;13.10;4.40;;;;;;;14.20;25.41;99530.03;4904500;28;97025;-72
2021/05/04 09:11:56;;;;;;;16.73;5.10;;;;;;;14.01;25.50;99513.34;4903644;28;98182;-72
2021/05/04 09:14:40;;;;;;;12.32;3.40;;;;;;;14.12;25.43;99499.81;4902662;28;97260;-73
2021/05/04 09:17:14;;;;;;;3.40;3.13;;;;;;;14.15;25.38;99535.44;4904806;28;96873;-72
2021/05/04 09:19:57;;;;;;;7.88;3.72;;;;;;;14.13;25.40;99507.81;4899330;28;96928;-73
2021/05/04 09:22:35;;;;;;;4.07;2.90;;;;;;;14.13;25.49;99529.22;4901856;28;99272;-73
2021/05/04 09:25:04;;;;;;;6.57;2.95;;;;;;;14.12;25.40;99534.59;4919985;28;97210;-73
2021/05/04 09:27:31;;;;;;;7.25;3.08;;;;;;;14.00;25.61;99543.69;4899406;28;97944;-74
2021/05/04 09:30:01;;;;;;;7.57;4.95;;;;;;;13.92;25.74;99513.47;4905335;28;97913;-72
2021/05/04 09:32:49;;;;;;;6.07;3.17;;;;;;;13.88;25.57;99526.88;4906014;28;98984;-72
2021/05/04 09:35:17;;;;;;;10.20;3.30;;;;;;;13.86;25.73;99516.19;4908407;28;97235;-72
2021/05/04 09:37:45;;;;;;;4.60;3.10;;;;;;;13.81;25.85;99501.13;4906758;28;96925;-73
2021/05/04 09:40:23;;;;;;;5.32;3.55;;;;;;;13.74;25.85;99489.59;4906117;28;97188;-72
2021/05/04 09:43:07;;;;;;;3.38;2.63;;;;;;;13.83;25.77;99485.94;4922399;28;97841;-72
2021/05/04 09:45:36;;;;;;;2.78;2.60;;;;;;;13.78;25.77;99480.63;4906692;28;96730;-72
2021/05/04 09:48:21;;;;;;;3.65;2.70;;;;;;;13.85;25.74;99482.38;4906849;28;97980;-73
2021/05/04 09:50:58;;;;;;;4.82;2.70;;;;;;;13.97;25.82;99473.28;4901903;28;98857;-72
2021/05/04 09:56:19;;;;;;;6.80;2.70;;;;;;;14.09;25.56;99474.00;4896899;28;96956;-74
2021/05/04 09:58:47;;;;;;;3.83;2.78;;;;;;;14.11;25.52;99466.84;4898606;28;97112;-74
2021/05/04 10:01:15;;;;;;;3.08;2.95;;;;;;;14.26;25.46;99456.84;4903958;28;97854;-73
2021/05/04 10:03:43;;;;;;;3.75;2.90;;;;;;;14.39;25.47;99463.78;4904753;28;98199;-73
2021/05/04 10:06:13;;;;;;;4.22;3.50;;;;;;;14.49;25.32;99468.06;4921130;28;96797;-72
2021/05/04 10:08:42;;;;;;;5.72;2.60;;;;;;;14.50;25.40;99472.53;4904794;28;96933;-72
2021/05/04 10:11:11;;;;;;;4.78;2.75;;;;;;;14.64;25.00;99451.78;4905050;28;97146;-73
2021/05/04 10:13:40;;;;;;;5.38;2.65;;;;;;;14.79;25.12;99456.91;4901674;28;96959;-73
2021/05/04 10:16:09;;;;;;;2.88;2.60;;;;;;;14.92;25.11;99458.44;4901454;28;96868;-72
2021/05/04 10:18:37;;;;;;;2.80;2.60;;;;;;;14.99;24.97;99457.44;4903722;28;97314;-72
2021/05/04 10:21:06;;;;;;;5.80;4.70;;;;;;;14.93;25.07;99450.38;4904971;28;97462;-72
2021/05/04 10:23:36;;;;;;;3.40;3.20;;;;;;;14.84;24.93;99460.38;4904303;28;97862;-72
2021/05/04 10:26:05;;;;;;;5.45;2.83;;;;;;;14.71;25.33;99457.03;4905190;28;96942;-72
2021/05/04 10:28:35;;;;;;;6.43;2.47;;;;;;;14.65;25.24;99454.44;4904949;28;97186;-73
2021/05/04 10:31:04;;;;;;;3.33;2.60;;;;;;;14.58;25.56;99474.19;4904714;28;97814;-74
2021/05/04 10:33:34;;;;;;;6.00;2.60;;;;;;;14.44;25.49;99456.53;4902237;28;97045;-72
2021/05/04 10:36:03;;;;;;;2.88;2.70;;;;;;;14.35;25.50;99449.56;4904330;28;96747;-71
2021/05/04 10:38:52;;;;;;;3.97;2.60;;;;;;;14.21;25.66;99454.22;4905413;28;96902;-73
2021/05/04 10:41:20;;;;;;;2.65;2.45;;;;;;;14.12;25.84;99447.22;4917521;28;96845;-73
2021/05/04 10:43:58;;;;;;;4.55;3.17;;;;;;;13.99;26.06;99445.59;4901005;28;97807;-72
2021/05/04 10:46:37;;;;;;;4.10;2.80;;;;;;;13.94;25.93;99446.56;4897214;28;96840;-72
2021/05/04 10:49:06;;;;;;;3.53;3.22;;;;;;;13.91;26.09;99466.25;4903487;28;97020;-72
2021/05/04 10:51:48;;;;;;;4.40;2.88;;;;;;;13.94;26.34;99463.53;4904825;28;98973;-72
2021/05/04 10:54:17;;;;;;;3.97;3.13;;;;;;;13.90;26.14;99453.75;4918144;28;96981;-72
2021/05/04 10:56:47;;;;;;;4.05;2.80;;;;;;;13.89;25.97;99446.66;4905470;28;96827;-72
2021/05/04 10:59:46;;;;;;;5.03;2.70;;;;;;;13.80;26.49;99462.81;4920280;28;97174;-73
2021/05/04 11:02:26;;;;;;;3.13;2.92;;;;;;;13.81;26.35;99447.66;4918214;28;97907;-73
2021/05/04 11:04:56;;;;;;;3.53;3.22;;;;;;;13.79;26.34;99455.69;4904647;28;97333;-73
2021/05/04 11:07:52;;;;;;;3.10;2.90;;;;;;;13.85;26.33;99452.94;4902769;28;96872;-73
2021/05/04 11:10:20;;;;;;;2.42;2.33;;;;;;;13.83;26.32;99446.72;4920274;28;97357;-73
2021/05/04 11:12:48;;;;;;;3.45;2.50;;;;;;;13.81;26.24;99461.91;4903310;28;97439;-73
2021/05/04 11:15:19;;;;;;;2.90;2.70;;;;;;;13.78;26.37;99442.31;4903769;28;99868;-72
2021/05/04 11:17:45;;;;;;;3.33;2.47;;;;;;;13.78;26.33;99447.66;4902468;28;96976;-74
2021/05/04 11:20:34;;;;;;;4.00;2.90;;;;;;;13.72;26.46;99443.28;4919453;28;96987;-73
2021/05/04 11:23:02;;;;;;;2.70;2.50;;;;;;;13.73;26.44;99450.38;4904144;28;98034;-72
2021/05/04 11:25:32;;;;;;;3.55;2.42;;;;;;;13.73;26.26;99447.69;4903443;28;98375;-73
2021/05/04 11:28:01;;;;;;;3.53;2.22;;;;;;;13.87;26.17;99413.72;4904899;28;96835;-73
2021/05/04 11:30:37;;;;;;;7.20;3.08;;;;;;;14.13;26.07;99426.69;4920206;28;97200;-72
2021/05/04 11:33:27;;;;;;;6.90;2.80;;;;;;;14.37;25.96;99414.75;4907312;28;97923;-73
2021/05/04 11:35:55;;;;;;;3.00;2.40;;;;;;;14.58;25.88;99409.94;4903687;28;97083;-74
2021/05/04 11:38:23;;;;;;;4.55;4.15;;;;;;;14.83;25.37;99407.69;4912070;28;96933;-72
2021/05/04 11:40:51;;;;;;;11.02;3.13;;;;;;;14.85;25.72;99396.06;4897665;28;97548;-73